createdAt,value
2022-09-23T00:01:20.267Z,11.40
2022-09-23T00:04:03.815Z,13.10
2022-09-23T00:06:41.196Z,14.90
2022-09-23T00:09:14.328Z,13.80
2022-09-23T00:11:50.362Z,10.50
2022-09-23T00:14:25.310Z,12.60
2022-09-23T00:16:58.875Z,11.90
2022-09-23T00:19:35.568Z,11.20
2022-09-23T00:22:20.301Z,10.70
2022-09-23T00:24:54.070Z,10.40
2022-09-23T00:27:27.634Z,12.50
2022-09-23T00:30:14.012Z,11.40
2022-09-23T00:32:47.082Z,12.10
2022-09-23T00:35:20.772Z,12.90
2022-09-23T00:37:54.605Z,14.00
2022-09-23T00:40:28.127Z,14.00
2022-09-23T00:43:05.187Z,14.80
2022-09-23T00:45:41.063Z,13.80
2022-09-23T00:48:24.253Z,11.40
2022-09-23T00:51:22.327Z,12.90
2022-09-23T00:53:56.304Z,13.10
2022-09-23T00:56:29.468Z,11.50
2022-09-23T00:59:24.618Z,13.10
2022-09-23T01:02:14.117Z,11.90
2022-09-23T01:04:47.500Z,10.80
2022-09-23T01:07:23.823Z,12.30
2022-09-23T01:09:58.204Z,11.10
2022-09-23T01:13:10.019Z,11.90
2022-09-23T01:15:51.394Z,11.60
2022-09-23T01:21:17.005Z,11.40
2022-09-23T01:24:27.253Z,10.60
2022-09-23T01:27:16.500Z,11.70
2022-09-23T01:30:19.287Z,14.00
2022-09-23T01:33:11.602Z,12.30
2022-09-23T01:35:57.671Z,14.50
2022-09-23T01:38:41.233Z,10.70
2022-09-23T01:41:31.703Z,13.40
2022-09-23T01:44:10.011Z,13.50
2022-09-23T01:46:54.378Z,11.40
2022-09-23T01:49:46.653Z,10.40
2022-09-23T01:52:47.537Z,11.50
2022-09-23T01:55:34.094Z,14.90
2022-09-23T01:58:25.602Z,10.70
2022-09-23T02:01:02.929Z,10.10
2022-09-23T02:03:40.446Z,11.80
2022-09-23T02:06:17.644Z,12.80
2022-09-23T02:08:56.845Z,11.80
2022-09-23T02:11:30.801Z,11.90
2022-09-23T02:14:08.628Z,12.70
2022-09-23T02:16:47.726Z,12.40
2022-09-23T02:19:34.076Z,10.70
2022-09-23T02:22:10.970Z,11.00
2022-09-23T02:25:05.067Z,10.30
2022-09-23T02:28:05.602Z,10.10
2022-09-23T02:30:49.364Z,12.60
2022-09-23T02:33:34.446Z,12.30
2022-09-23T02:36:32.703Z,12.50
2022-09-23T02:39:37.465Z,12.10
2022-09-23T02:42:15.861Z,12.40
2022-09-23T02:45:00.380Z,12.10
2022-09-23T02:47:37.261Z,13.70
2022-09-23T02:50:20.938Z,14.80
2022-09-23T02:52:57.411Z,11.50
2022-09-23T02:55:44.140Z,12.70
2022-09-23T02:58:19.798Z,12.20
2022-09-23T03:01:22.586Z,11.60
2022-09-23T03:04:07.665Z,10.40
2022-09-23T03:06:49.887Z,11.80
2022-09-23T03:09:28.294Z,12.40
2022-09-23T03:12:18.784Z,12.50
2022-09-23T03:14:59.054Z,11.40
2022-09-23T03:17:59.337Z,13.00
2022-09-23T03:20:38.004Z,11.90
2022-09-23T03:25:47.585Z,12.60
2022-09-23T03:28:23.575Z,13.20
2022-09-23T03:31:01.417Z,13.30
2022-09-23T03:33:35.855Z,15.10
2022-09-23T03:36:31.808Z,16.60
2022-09-23T03:39:12.336Z,18.20
2022-09-23T03:41:51.175Z,21.40
2022-09-23T03:44:40.092Z,19.70
2022-09-23T03:47:16.966Z,19.00
2022-09-23T03:49:51.922Z,20.90
2022-09-23T03:52:27.145Z,19.10
2022-09-23T03:55:04.196Z,19.30
2022-09-23T03:57:57.371Z,18.90
2022-09-23T04:00:30.780Z,18.90
2022-09-23T04:03:11.553Z,18.50
2022-09-23T04:05:48.807Z,19.40
2022-09-23T04:08:30.314Z,16.80
2022-09-23T04:11:07.541Z,14.60
2022-09-23T04:13:44.220Z,15.10
2022-09-23T04:16:37.637Z,14.80
2022-09-23T04:19:13.049Z,15.60
2022-09-23T04:22:08.391Z,15.20
2022-09-23T04:24:44.718Z,15.30
2022-09-23T04:27:17.728Z,11.70
2022-09-23T04:29:54.493Z,14.50
2022-09-23T04:32:28.065Z,16.00
2022-09-23T04:35:06.535Z,13.90
2022-09-23T04:37:40.071Z,14.90
2022-09-23T04:40:14.548Z,14.60
2022-09-23T04:42:48.292Z,13.40
2022-09-23T04:45:21.860Z,14.90
2022-09-23T04:47:56.316Z,12.70
2022-09-23T04:50:34.221Z,13.30
2022-09-23T04:53:08.434Z,14.60
2022-09-23T04:55:42.814Z,14.40
2022-09-23T04:58:16.293Z,13.70
2022-09-23T05:00:49.653Z,12.60
2022-09-23T05:03:24.305Z,14.30
2022-09-23T05:06:02.347Z,15.80
2022-09-23T05:08:35.682Z,14.30
2022-09-23T05:11:18.971Z,14.80
2022-09-23T05:14:02.754Z,13.90
2022-09-23T05:16:36.306Z,13.00
2022-09-23T05:19:09.746Z,13.60
2022-09-23T05:21:46.244Z,14.40
2022-09-23T05:24:26.213Z,16.30
2022-09-23T05:27:02.977Z,17.10
2022-09-23T05:29:46.283Z,17.50
2022-09-23T05:32:23.290Z,15.20
2022-09-23T05:35:08.861Z,13.10
2022-09-23T05:37:42.280Z,14.40
2022-09-23T05:40:18.486Z,14.70
2022-09-23T05:42:54.805Z,17.80
2022-09-23T05:45:48.476Z,14.70
2022-09-23T05:48:21.957Z,20.40
2022-09-23T05:50:56.137Z,14.80
2022-09-23T05:53:45.290Z,18.60
2022-09-23T05:56:30.445Z,16.10
2022-09-23T05:59:13.752Z,17.40
2022-09-23T06:01:47.405Z,15.00
2022-09-23T06:04:31.402Z,18.00
2022-09-23T06:07:04.829Z,15.30
2022-09-23T06:09:38.089Z,17.40
2022-09-23T06:12:11.684Z,15.80
2022-09-23T06:15:05.377Z,16.90
2022-09-23T06:17:38.554Z,15.40
2022-09-23T06:20:22.135Z,17.20
2022-09-23T06:22:56.594Z,18.20
2022-09-23T06:25:39.903Z,12.70
2022-09-23T06:28:16.389Z,16.50
2022-09-23T06:30:50.858Z,14.60
2022-09-23T06:33:36.319Z,14.50
2022-09-23T06:36:11.507Z,14.60
2022-09-23T06:38:45.657Z,12.60
2022-09-23T06:41:22.935Z,12.90
2022-09-23T06:43:56.699Z,14.60
2022-09-23T06:46:31.592Z,15.30
2022-09-23T06:49:17.925Z,14.90
2022-09-23T06:52:11.324Z,15.80
2022-09-23T06:54:44.401Z,15.10
2022-09-23T06:57:17.670Z,15.00
2022-09-23T06:59:51.381Z,12.00
2022-09-23T07:02:24.759Z,16.40
2022-09-23T07:04:57.986Z,17.70
2022-09-23T07:07:33.687Z,14.50
2022-09-23T07:10:08.131Z,20.10
2022-09-23T07:12:43.575Z,20.10
2022-09-23T07:15:36.947Z,15.70
2022-09-23T07:18:19.515Z,14.40
2022-09-23T07:20:59.332Z,15.40
2022-09-23T07:23:35.441Z,16.40
2022-09-23T07:26:09.374Z,16.60
2022-09-23T07:28:46.197Z,15.00
2022-09-23T07:31:34.242Z,16.30
2022-09-23T07:34:12.001Z,13.40
2022-09-23T07:36:45.602Z,14.20
2022-09-23T07:39:19.181Z,12.20
2022-09-23T07:41:55.674Z,13.10
2022-09-23T07:44:48.124Z,15.50
2022-09-23T07:47:24.842Z,20.60
2022-09-23T07:50:12.382Z,14.80
2022-09-23T07:52:49.463Z,13.10
2022-09-23T07:55:22.767Z,12.00
2022-09-23T07:57:56.515Z,11.70
2022-09-23T08:00:33.511Z,13.20
2022-09-23T08:03:06.836Z,16.40
2022-09-23T08:05:40.435Z,14.80
2022-09-23T08:08:27.544Z,12.80
2022-09-23T08:11:21.449Z,13.00
2022-09-23T08:13:55.184Z,13.50
2022-09-23T08:16:28.680Z,12.90
2022-09-23T08:19:02.195Z,15.30
2022-09-23T08:21:40.688Z,14.30
2022-09-23T08:24:34.472Z,14.10
2022-09-23T08:27:28.494Z,12.90
2022-09-23T08:30:21.769Z,13.70
2022-09-23T08:32:58.375Z,15.50
2022-09-23T08:35:41.895Z,14.20
2022-09-23T08:38:35.308Z,12.60
2022-09-23T08:41:36.691Z,12.00
2022-09-23T08:44:15.676Z,14.90
2022-09-23T08:46:57.445Z,12.80
2022-09-23T08:49:38.985Z,11.50
2022-09-23T08:52:19.828Z,12.50
2022-09-23T08:54:55.460Z,11.00
2022-09-23T08:57:40.730Z,7.30
2022-09-23T09:00:22.121Z,8.60
2022-09-23T09:02:55.699Z,7.80
2022-09-23T09:05:31.280Z,6.10
2022-09-23T09:08:05.326Z,7.70
2022-09-23T09:10:47.628Z,7.10
2022-09-23T09:13:30.632Z,7.60
2022-09-23T09:16:27.271Z,7.50
2022-09-23T09:19:21.038Z,7.60
2022-09-23T09:22:09.612Z,10.20
2022-09-23T09:24:50.571Z,9.70
2022-09-23T09:27:27.211Z,8.60
2022-09-23T09:30:03.340Z,9.80
2022-09-23T09:33:00.799Z,8.40
2022-09-23T09:35:42.386Z,8.80
2022-09-23T09:38:15.653Z,8.90
2022-09-23T09:40:51.959Z,9.40
2022-09-23T09:43:25.859Z,7.70
2022-09-23T09:46:15.403Z,8.80
2022-09-23T09:48:56.622Z,6.70
2022-09-23T09:51:31.081Z,4.40
2022-09-23T09:54:25.038Z,5.90
2022-09-23T10:45:04.957Z,2.90
2022-09-23T10:48:04.184Z,3.10
2022-09-23T10:50:44.570Z,2.00
2022-09-23T10:53:25.923Z,3.40
2022-09-23T10:56:25.869Z,3.30
2022-09-23T10:59:15.581Z,2.10
2022-09-23T11:01:59.531Z,2.00
2022-09-23T11:04:55.068Z,2.80
2022-09-23T11:07:38.320Z,3.80
2022-09-23T11:10:49.369Z,3.50
2022-09-23T11:13:37.553Z,2.30
2022-09-23T11:16:25.304Z,2.60
2022-09-23T11:19:24.014Z,3.70
2022-09-23T11:22:17.447Z,2.80
2022-09-23T11:25:26.860Z,2.50
2022-09-23T11:28:26.594Z,2.80
2022-09-23T11:31:10.461Z,2.20
2022-09-23T11:34:03.221Z,2.30
2022-09-23T11:36:43.012Z,3.50
2022-09-23T11:39:19.943Z,2.90
2022-09-23T11:41:57.815Z,4.20
2022-09-23T11:44:34.177Z,2.40
2022-09-23T11:47:11.139Z,3.00
2022-09-23T11:49:51.945Z,4.10
2022-09-23T11:52:32.042Z,3.10
2022-09-23T11:55:22.348Z,3.30
2022-09-23T11:58:02.087Z,2.20
2022-09-23T12:00:40.790Z,4.90
2022-09-23T12:03:34.461Z,3.50
2022-09-23T12:06:23.339Z,3.70
2022-09-23T12:09:02.996Z,2.20
2022-09-23T12:11:44.416Z,3.60
2022-09-23T12:14:23.426Z,2.50
2022-09-23T12:17:17.166Z,3.00
2022-09-23T12:20:13.717Z,4.60
2022-09-23T12:23:06.180Z,2.60
2022-09-23T12:25:47.896Z,2.00
2022-09-23T12:28:27.042Z,2.60
2022-09-23T12:31:03.913Z,1.60
2022-09-23T12:33:39.069Z,2.70
2022-09-23T12:36:14.665Z,4.10
2022-09-23T12:38:54.056Z,2.90
2022-09-23T12:41:37.889Z,1.50
2022-09-23T12:44:37.031Z,1.70
2022-09-23T12:47:39.227Z,1.40
2022-09-23T12:50:51.127Z,2.30
2022-09-23T12:54:17.703Z,1.50
2022-09-23T12:57:13.907Z,3.60
2022-09-23T13:00:24.189Z,5.80
2022-09-23T13:03:18.529Z,3.90
2022-09-23T13:06:16.350Z,4.50
2022-09-23T13:08:51.140Z,5.10
2022-09-23T13:11:28.280Z,3.80
2022-09-23T13:14:07.364Z,2.70
2022-09-23T13:16:46.339Z,2.80
2022-09-23T13:19:47.728Z,2.40
2022-09-23T13:23:01.595Z,4.40
2022-09-23T13:25:42.058Z,2.60
2022-09-23T13:28:28.618Z,2.90
2022-09-23T13:31:07.287Z,3.00
2022-09-23T13:33:46.937Z,2.70
2022-09-23T13:36:22.202Z,5.10
2022-09-23T13:39:15.380Z,2.80
2022-09-23T13:41:48.957Z,5.00
2022-09-23T13:44:24.087Z,7.20
2022-09-23T13:47:00.435Z,5.20
2022-09-23T13:49:37.897Z,6.90
2022-09-23T13:52:25.813Z,6.50
2022-09-23T13:54:59.580Z,3.70
2022-09-23T13:57:35.418Z,3.60
2022-09-23T14:00:22.622Z,5.10
2022-09-23T14:02:56.204Z,2.60
2022-09-23T14:05:34.178Z,2.90
2022-09-23T14:08:09.587Z,2.90
2022-09-23T14:10:46.429Z,3.90
2022-09-23T14:13:26.687Z,2.10
2022-09-23T14:16:04.622Z,3.30
2022-09-23T14:18:42.180Z,2.60
2022-09-23T14:21:35.487Z,3.30
2022-09-23T14:24:16.388Z,4.90
2022-09-23T14:26:51.981Z,4.50
2022-09-23T14:29:30.060Z,6.10
2022-09-23T14:32:07.044Z,3.50
2022-09-23T14:34:50.829Z,2.30
2022-09-23T14:37:46.993Z,3.30
2022-09-23T14:40:23.130Z,3.30
2022-09-23T14:43:05.496Z,3.80
2022-09-23T14:45:41.638Z,3.70
2022-09-23T14:48:19.129Z,3.20
2022-09-23T14:50:56.332Z,3.90
2022-09-23T14:53:47.341Z,3.50
2022-09-23T14:56:25.324Z,3.20
2022-09-23T14:59:01.145Z,6.00
2022-09-23T15:01:41.812Z,2.80
2022-09-23T15:04:18.996Z,4.40
2022-09-23T15:06:59.327Z,4.60
2022-09-23T15:09:37.310Z,2.70
2022-09-23T15:12:16.396Z,4.20
2022-09-23T15:14:55.116Z,5.00
2022-09-23T15:20:10.728Z,3.90
2022-09-23T15:22:48.970Z,4.90
2022-09-23T15:25:28.578Z,3.50
2022-09-23T15:28:18.490Z,2.50
2022-09-23T15:30:53.776Z,3.30
2022-09-23T15:33:28.563Z,4.30
2022-09-23T15:36:21.158Z,3.10
2022-09-23T15:39:16.558Z,5.70
2022-09-23T15:41:50.218Z,4.60
2022-09-23T15:44:30.071Z,4.00
2022-09-23T15:47:24.027Z,6.10
2022-09-23T15:50:09.344Z,5.80
2022-09-23T15:52:45.510Z,6.80
2022-09-23T15:55:23.270Z,7.30
2022-09-23T15:57:57.064Z,4.30
2022-09-23T16:00:30.422Z,5.40
2022-09-23T16:03:04.595Z,6.80
2022-09-23T16:05:40.783Z,7.10
2022-09-23T16:10:50.149Z,7.40
2022-09-23T16:13:31.935Z,6.10
2022-09-23T16:16:08.463Z,6.90
2022-09-23T16:18:44.169Z,9.20
2022-09-23T16:21:20.067Z,10.90
2022-09-23T16:23:54.869Z,9.30
2022-09-23T16:26:30.704Z,8.00
2022-09-23T16:29:04.181Z,8.00
2022-09-23T16:31:40.760Z,12.10
2022-09-23T16:34:14.387Z,9.30
2022-09-23T16:36:48.394Z,11.40
2022-09-23T16:39:23.184Z,11.40
2022-09-23T16:41:56.823Z,12.50
2022-09-23T16:44:32.289Z,13.30
2022-09-23T16:47:05.939Z,14.80
2022-09-23T16:49:39.394Z,12.40
2022-09-23T16:52:17.189Z,10.50
2022-09-23T16:57:35.465Z,12.50
2022-09-23T17:00:31.295Z,12.90
2022-09-23T17:03:24.421Z,11.50
2022-09-23T17:06:07.227Z,11.20
2022-09-23T17:08:43.488Z,10.40
2022-09-23T17:11:17.594Z,12.00
2022-09-23T17:13:51.965Z,11.60
2022-09-23T17:16:28.441Z,12.00
2022-09-23T17:19:07.590Z,13.60
2022-09-23T17:21:45.132Z,10.70
2022-09-23T17:24:19.252Z,11.70
2022-09-23T17:26:53.421Z,13.50
2022-09-23T17:29:29.427Z,11.30
2022-09-23T17:32:04.597Z,12.20
2022-09-23T17:34:38.160Z,11.20
2022-09-23T17:37:11.461Z,11.60
2022-09-23T17:39:48.498Z,10.90
2022-09-23T17:42:21.804Z,13.30
2022-09-23T17:44:56.877Z,13.10
2022-09-23T17:47:33.381Z,10.60
2022-09-23T17:50:08.578Z,12.10
2022-09-23T17:52:42.152Z,13.30
2022-09-23T17:55:17.092Z,11.50
2022-09-23T17:57:55.358Z,14.10
2022-09-23T18:00:32.009Z,15.50
2022-09-23T18:03:05.709Z,14.20
2022-09-23T18:05:39.457Z,13.80
2022-09-23T18:08:12.946Z,13.70
2022-09-23T18:10:49.865Z,16.00
2022-09-23T18:13:23.859Z,14.30
2022-09-23T18:15:57.561Z,15.60
2022-09-23T18:18:31.832Z,17.00
2022-09-23T18:21:20.061Z,16.50
2022-09-23T18:23:53.461Z,13.60
2022-09-23T18:26:28.349Z,17.10
2022-09-23T18:29:02.721Z,20.00
2022-09-23T18:31:39.002Z,16.20
2022-09-23T18:34:15.493Z,14.70
2022-09-23T18:36:49.220Z,13.20
2022-09-23T18:39:23.218Z,17.00
2022-09-23T18:41:57.584Z,16.10
2022-09-23T18:44:34.252Z,14.60
2022-09-23T18:47:07.734Z,16.80
2022-09-23T18:50:03.069Z,14.50
2022-09-23T18:52:45.845Z,14.40
2022-09-23T18:55:19.588Z,16.20
2022-09-23T18:57:52.999Z,16.10
2022-09-23T19:00:26.768Z,17.60
2022-09-23T19:03:11.281Z,16.50
2022-09-23T19:05:45.588Z,19.20
2022-09-23T19:08:20.047Z,16.90
2022-09-23T19:11:00.652Z,18.90
2022-09-23T19:13:37.754Z,19.80
2022-09-23T19:16:17.355Z,20.10
2022-09-23T19:18:54.733Z,20.10
2022-09-23T19:21:29.708Z,19.50
2022-09-23T19:24:04.753Z,19.20
2022-09-23T19:26:41.259Z,19.00
2022-09-23T19:29:19.744Z,21.80
2022-09-23T19:31:53.980Z,20.50
2022-09-23T19:34:31.750Z,19.70
2022-09-23T19:37:05.523Z,23.00
2022-09-23T19:39:53.181Z,21.20
2022-09-23T19:42:28.425Z,25.40
2022-09-23T19:45:01.527Z,22.20
2022-09-23T19:47:44.670Z,23.80
2022-09-23T19:50:19.451Z,24.60
2022-09-23T19:52:53.180Z,24.60
2022-09-23T19:55:28.677Z,26.60
2022-09-23T19:58:02.293Z,25.80
2022-09-23T20:00:36.272Z,23.00
2022-09-23T20:03:10.216Z,21.40
2022-09-23T20:05:44.397Z,21.50
2022-09-23T20:08:17.694Z,19.00
2022-09-23T20:10:53.286Z,18.70
2022-09-23T20:13:27.529Z,20.30
2022-09-23T20:16:09.324Z,21.20
2022-09-23T20:18:43.799Z,21.60
2022-09-23T20:21:18.360Z,22.40
2022-09-23T20:23:51.916Z,20.20
2022-09-23T20:26:42.703Z,23.50
2022-09-23T20:29:16.820Z,24.40
2022-09-23T20:31:50.601Z,19.20
2022-09-23T20:34:24.911Z,20.60
2022-09-23T20:36:59.462Z,21.00
2022-09-23T20:39:36.800Z,21.60
2022-09-23T20:42:10.451Z,24.50
2022-09-23T20:44:45.282Z,23.50
2022-09-23T20:47:20.151Z,23.70
2022-09-23T20:49:54.144Z,23.50
2022-09-23T20:52:49.127Z,25.80
2022-09-23T20:55:23.228Z,20.20
2022-09-23T20:57:57.117Z,22.80
2022-09-23T21:00:30.627Z,21.80
2022-09-23T21:03:05.006Z,23.30
2022-09-23T21:05:40.317Z,24.90
2022-09-23T21:08:13.561Z,22.00
2022-09-23T21:10:54.502Z,22.00
2022-09-23T21:13:32.409Z,22.10
2022-09-23T21:16:09.244Z,24.60
2022-09-23T21:18:46.027Z,25.60
2022-09-23T21:21:22.602Z,19.80
2022-09-23T21:24:07.076Z,21.90
2022-09-23T21:26:50.804Z,21.30
2022-09-23T21:29:24.221Z,23.00
2022-09-23T21:31:57.892Z,20.50
2022-09-23T21:34:32.445Z,23.70
2022-09-23T21:37:06.320Z,25.90
2022-09-23T21:39:40.143Z,25.60
2022-09-23T21:42:33.374Z,22.60
2022-09-23T21:45:07.514Z,23.40
2022-09-23T21:47:41.019Z,22.70
2022-09-23T21:50:14.770Z,25.90
2022-09-23T21:52:52.444Z,22.00
2022-09-23T21:55:28.162Z,21.70
2022-09-23T21:58:01.299Z,23.80
2022-09-23T22:00:46.345Z,25.80
2022-09-23T22:03:31.098Z,20.50
2022-09-23T22:06:07.168Z,23.70
2022-09-23T22:08:45.158Z,22.10
2022-09-23T22:11:38.949Z,22.80
2022-09-23T22:14:14.350Z,23.30
2022-09-23T22:16:48.154Z,22.60
2022-09-23T22:19:25.937Z,23.40
2022-09-23T22:21:59.562Z,22.30
2022-09-23T22:24:53.928Z,21.70
2022-09-23T22:27:30.223Z,22.20
2022-09-23T22:30:25.754Z,20.20
2022-09-23T22:33:01.899Z,24.00
2022-09-23T22:35:35.046Z,24.00
2022-09-23T22:38:11.107Z,23.90
2022-09-23T22:40:47.532Z,22.10
2022-09-23T22:43:31.281Z,24.90
2022-09-23T22:46:07.721Z,21.60
2022-09-23T22:48:41.072Z,24.90
2022-09-23T22:51:14.613Z,25.40
2022-09-23T22:53:48.504Z,24.30
2022-09-23T22:56:21.903Z,23.40
2022-09-23T22:58:58.131Z,23.30
2022-09-23T23:01:31.947Z,22.90
2022-09-23T23:04:09.103Z,23.60
2022-09-23T23:06:43.293Z,24.90
2022-09-23T23:09:18.783Z,22.90
2022-09-23T23:11:52.456Z,21.80
2022-09-23T23:14:26.715Z,22.80
2022-09-23T23:17:01.105Z,22.80
2022-09-23T23:19:55.574Z,25.80
2022-09-23T23:22:31.353Z,24.00
2022-09-23T23:25:25.172Z,22.70
2022-09-23T23:27:58.797Z,22.40
2022-09-23T23:30:32.445Z,22.60
2022-09-23T23:33:08.446Z,24.70
2022-09-23T23:35:41.736Z,25.60
2022-09-23T23:38:15.105Z,24.20
2022-09-23T23:40:52.883Z,24.20
2022-09-23T23:43:29.141Z,32.60
2022-09-23T23:46:14.686Z,25.50
2022-09-23T23:48:48.534Z,25.90
2022-09-23T23:51:23.139Z,24.30
2022-09-23T23:53:58.926Z,24.00
2022-09-23T23:56:33.818Z,22.90
2022-09-23T23:59:07.463Z,23.80
